Time;durP1;ratioP1;P1;durP2;ratioP2;P2;SDS_P1;SDS_P2;PMS_P1;PMS_P2;Temp;Humidity;BMP_temperature;BMP_pressure;BME280_temperature;BME280_humidity;BME280_pressure;Samples;Min_cycle;Max_cycle;Signal;HPM_P1;HPM_P2
2023/11/05 00:01:27;;;;;;;;;;;9.90;99.90;;;;;;5081864;28;19920;-77
2023/11/05 00:03:54;;;;;;;;;;;10.00;99.90;;;;;;5079688;28;19920;-78
2023/11/05 00:06:21;;;;;;;;;;;10.10;99.90;;;;;;5080699;28;19924;-78
2023/11/05 00:08:48;;;;;;;;;;;10.10;99.90;;;;;;5081524;28;19920;-77
2023/11/05 00:11:16;;;;;;;;;;;10.20;99.90;;;;;;5078972;28;19920;-76
2023/11/05 00:13:43;;;;;;;;;;;10.00;99.90;;;;;;5083325;28;20010;-76
2023/11/05 00:16:12;;;;;;;;;;;10.00;99.90;;;;;;5071552;28;20018;-77
2023/11/05 00:18:39;;;;;;;;;;;10.00;99.90;;;;;;5074818;28;19969;-77
2023/11/05 00:21:07;;;;;;;;;;;9.60;99.90;;;;;;5081339;28;19928;-76
2023/11/05 00:23:34;;;;;;;;;;;9.40;99.90;;;;;;5093561;28;19998;-77
2023/11/05 00:26:01;;;;;;;;;;;9.40;99.90;;;;;;5083026;28;19927;-77
2023/11/05 00:28:28;;;;;;;;;;;9.60;99.90;;;;;;5081266;28;19927;-79
2023/11/05 00:30:56;;;;;;;;;;;9.90;99.90;;;;;;5079093;28;19970;-77
2023/11/05 00:33:23;;;;;;;;;;;10.00;99.90;;;;;;5081832;28;19939;-77
2023/11/05 00:35:51;;;;;;;;;;;10.10;99.90;;;;;;5077778;28;20284;-77
2023/11/05 00:38:18;;;;;;;;;;;10.10;99.90;;;;;;5077335;28;20379;-77
2023/11/05 00:40:45;;;;;;;;;;;10.10;99.90;;;;;;5079876;28;20014;-75
2023/11/05 00:43:12;;;;;;;;;;;10.00;99.90;;;;;;5083464;28;19928;-76
2023/11/05 00:45:39;;;;;;;;;;;9.80;99.90;;;;;;5078671;28;19924;-77
2023/11/05 00:48:24;;;;;;;;;;;9.80;99.90;;;;;;5060401;28;19908;-77
2023/11/05 00:50:51;;;;;;;;;;;9.50;99.90;;;;;;5078671;28;19920;-77
2023/11/05 00:53:18;;;;;;;;;;;9.50;99.90;;;;;;5079357;28;19947;-77
2023/11/05 00:55:45;;;;;;;;;;;9.70;99.90;;;;;;5078973;28;19931;-78
2023/11/05 00:58:12;;;;;;;;;;;9.70;99.90;;;;;;5083795;28;19927;-79
2023/11/05 01:00:39;;;;;;;;;;;9.70;99.90;;;;;;5081679;28;19926;-77
2023/11/05 01:03:06;;;;;;;;;;;9.80;99.90;;;;;;5076087;28;19924;-75
2023/11/05 01:05:34;;;;;;;;;;;9.60;99.90;;;;;;5081844;28;19924;-76
2023/11/05 01:08:01;;;;;;;;;;;9.70;99.90;;;;;;5079604;28;19920;-77
2023/11/05 01:10:28;;;;;;;;;;;9.70;99.90;;;;;;5081205;28;19920;-77
2023/11/05 01:12:56;;;;;;;;;;;9.80;99.90;;;;;;5075986;28;20002;-76
2023/11/05 01:15:24;;;;;;;;;;;9.70;99.90;;;;;;5075348;28;19939;-77
2023/11/05 01:17:51;;;;;;;;;;;9.60;99.90;;;;;;5060184;28;19920;-78
2023/11/05 01:20:18;;;;;;;;;;;9.50;99.90;;;;;;5081564;28;19920;-77
2023/11/05 01:22:45;;;;;;;;;;;9.40;99.90;;;;;;5069425;28;19948;-77
2023/11/05 01:25:12;;;;;;;;;;;9.40;99.90;;;;;;5079701;28;19928;-79
2023/11/05 01:27:39;;;;;;;;;;;9.40;99.90;;;;;;5075788;28;19932;-78
2023/11/05 01:30:08;;;;;;;;;;;9.40;99.90;;;;;;5076708;28;19936;-76
2023/11/05 01:32:35;;;;;;;;;;;9.40;99.90;;;;;;5078187;28;19968;-77
2023/11/05 01:35:03;;;;;;;;;;;9.50;99.90;;;;;;5046126;28;19924;-76
2023/11/05 01:37:30;;;;;;;;;;;9.40;99.90;;;;;;5080704;28;19924;-77
2023/11/05 01:39:57;;;;;;;;;;;9.40;99.90;;;;;;5080044;28;19954;-76
2023/11/05 01:42:24;;;;;;;;;;;9.40;99.90;;;;;;5059205;28;19926;-77
2023/11/05 01:44:52;;;;;;;;;;;9.40;99.90;;;;;;5080448;28;19948;-76
2023/11/05 01:47:19;;;;;;;;;;;9.40;99.90;;;;;;5080710;28;20300;-76
2023/11/05 01:49:46;;;;;;;;;;;9.30;99.90;;;;;;5076990;28;20018;-76
2023/11/05 01:52:14;;;;;;;;;;;9.20;99.90;;;;;;5079881;28;19920;-76
2023/11/05 01:54:41;;;;;;;;;;;9.30;99.90;;;;;;5078784;28;20279;-76
2023/11/05 01:57:08;;;;;;;;;;;9.40;99.90;;;;;;5078553;28;19920;-77
2023/11/05 01:59:36;;;;;;;;;;;9.30;99.90;;;;;;5078503;28;19920;-77
2023/11/05 02:02:03;;;;;;;;;;;9.30;99.90;;;;;;5081892;28;19928;-76
2023/11/05 02:04:30;;;;;;;;;;;9.40;99.90;;;;;;5076917;28;20034;-76
2023/11/05 02:06:57;;;;;;;;;;;9.40;99.90;;;;;;5075369;28;20419;-76
2023/11/05 02:09:25;;;;;;;;;;;9.30;99.90;;;;;;5074147;28;20011;-76
2023/11/05 02:11:52;;;;;;;;;;;8.70;99.90;;;;;;5060912;28;20034;-76
2023/11/05 02:14:19;;;;;;;;;;;8.90;99.90;;;;;;5082422;28;19924;-78
2023/11/05 02:16:46;;;;;;;;;;;9.20;99.90;;;;;;5076109;28;19942;-79
2023/11/05 02:19:13;;;;;;;;;;;9.10;99.90;;;;;;5077277;28;20446;-77
2023/11/05 02:21:46;;;;;;;;;;;9.20;99.90;;;;;;5081323;28;20237;-79
2023/11/05 02:24:13;;;;;;;;;;;9.20;99.90;;;;;;5073034;28;19920;-78
2023/11/05 02:26:40;;;;;;;;;;;8.80;99.90;;;;;;5080429;28;20261;-78
2023/11/05 02:29:07;;;;;;;;;;;9.00;99.90;;;;;;5079005;28;19930;-76
2023/11/05 02:31:34;;;;;;;;;;;9.20;99.90;;;;;;5075531;28;20359;-76
2023/11/05 02:34:03;;;;;;;;;;;9.40;99.90;;;;;;5078985;28;19963;-75
2023/11/05 02:36:31;;;;;;;;;;;9.50;99.90;;;;;;5083403;28;19924;-76
2023/11/05 02:38:58;;;;;;;;;;;9.60;99.90;;;;;;5076951;28;19921;-75
2023/11/05 02:41:25;;;;;;;;;;;9.50;99.90;;;;;;5082088;28;20299;-76
2023/11/05 02:43:52;;;;;;;;;;;9.40;99.90;;;;;;5072932;28;19931;-76
2023/11/05 02:46:19;;;;;;;;;;;9.50;99.90;;;;;;5080076;28;19920;-76
2023/11/05 02:48:46;;;;;;;;;;;9.60;99.90;;;;;;5083126;28;19942;-77
2023/11/05 02:51:13;;;;;;;;;;;9.60;99.90;;;;;;5084791;28;19928;-74
2023/11/05 02:53:41;;;;;;;;;;;9.50;99.90;;;;;;5065384;28;19924;-76
2023/11/05 02:56:08;;;;;;;;;;;9.40;99.90;;;;;;5081071;28;20487;-74
2023/11/05 02:58:36;;;;;;;;;;;9.40;99.90;;;;;;5079632;28;19930;-76
2023/11/05 03:01:03;;;;;;;;;;;9.10;99.90;;;;;;5081946;28;20291;-77
2023/11/05 03:03:31;;;;;;;;;;;8.90;99.90;;;;;;5076694;28;19970;-76
2023/11/05 03:05:58;;;;;;;;;;;8.80;99.90;;;;;;5083150;28;20367;-77
2023/11/05 03:08:25;;;;;;;;;;;8.90;99.90;;;;;;5084576;28;19924;-76
2023/11/05 03:10:52;;;;;;;;;;;8.70;99.90;;;;;;5082316;28;19920;-77
2023/11/05 03:13:19;;;;;;;;;;;9.00;99.90;;;;;;5086117;28;20298;-74
2023/11/05 03:15:47;;;;;;;;;;;9.20;99.90;;;;;;5081298;28;19967;-76
2023/11/05 03:18:14;;;;;;;;;;;9.20;99.90;;;;;;5081576;28;19935;-76
2023/11/05 03:20:41;;;;;;;;;;;9.20;99.90;;;;;;5062435;28;20625;-75
2023/11/05 03:23:08;;;;;;;;;;;9.00;99.90;;;;;;5080100;28;19928;-75
2023/11/05 03:25:36;;;;;;;;;;;9.00;99.90;;;;;;5080537;28;19928;-76
2023/11/05 03:28:03;;;;;;;;;;;9.10;99.90;;;;;;5082110;28;19970;-77
2023/11/05 03:30:31;;;;;;;;;;;9.20;99.90;;;;;;5078096;28;20395;-76
2023/11/05 03:32:58;;;;;;;;;;;9.30;99.90;;;;;;5094727;28;19931;-77
2023/11/05 03:35:25;;;;;;;;;;;9.30;99.90;;;;;;5081965;28;19967;-78
2023/11/05 03:37:52;;;;;;;;;;;9.00;99.90;;;;;;5082201;28;19920;-78
2023/11/05 03:40:19;;;;;;;;;;;9.10;99.90;;;;;;5078400;28;19926;-75
2023/11/05 03:42:46;;;;;;;;;;;9.20;99.90;;;;;;5065113;28;19924;-76
2023/11/05 03:45:13;;;;;;;;;;;9.30;99.90;;;;;;5071253;28;20019;-74
2023/11/05 03:47:40;;;;;;;;;;;9.30;99.90;;;;;;5082099;28;20023;-76
2023/11/05 03:50:08;;;;;;;;;;;9.30;99.90;;;;;;5082625;28;19919;-73
2023/11/05 03:52:35;;;;;;;;;;;9.30;99.90;;;;;;5077870;28;20010;-75
2023/11/05 03:55:02;;;;;;;;;;;9.20;99.90;;;;;;5082598;28;20011;-75
2023/11/05 03:57:30;;;;;;;;;;;9.10;99.90;;;;;;5077588;28;20295;-76
2023/11/05 03:59:57;;;;;;;;;;;9.10;99.90;;;;;;5081504;28;20303;-74
2023/11/05 04:02:24;;;;;;;;;;;9.10;99.90;;;;;;5082412;28;19929;-77
2023/11/05 04:04:53;;;;;;;;;;;9.20;99.90;;;;;;5079087;28;19928;-76
2023/11/05 04:07:20;;;;;;;;;;;9.20;99.90;;;;;;5079461;28;19927;-75
2023/11/05 04:09:48;;;;;;;;;;;9.20;99.90;;;;;;5072795;28;19927;-76
2023/11/05 04:12:14;;;;;;;;;;;9.20;99.90;;;;;;5075435;28;19977;-76
2023/11/05 04:14:42;;;;;;;;;;;9.20;99.90;;;;;;5079812;28;19956;-76
2023/11/05 04:17:09;;;;;;;;;;;9.10;99.90;;;;;;5077711;28;19957;-76
2023/11/05 04:19:37;;;;;;;;;;;9.10;99.90;;;;;;5078375;28;19924;-76
2023/11/05 04:22:05;;;;;;;;;;;9.00;99.90;;;;;;5077861;28;19924;-77
2023/11/05 04:24:32;;;;;;;;;;;9.00;99.90;;;;;;5078473;28;19963;-75
2023/11/05 04:26:59;;;;;;;;;;;8.70;99.90;;;;;;5081511;28;20076;-75
2023/11/05 04:29:26;;;;;;;;;;;8.80;99.90;;;;;;5072405;28;19927;-75
2023/11/05 04:31:55;;;;;;;;;;;8.90;99.90;;;;;;5077268;28;19924;-75
2023/11/05 04:34:23;;;;;;;;;;;8.80;99.90;;;;;;5082283;28;19924;-76
2023/11/05 04:36:50;;;;;;;;;;;8.80;99.90;;;;;;5076334;28;19966;-76
2023/11/05 04:39:17;;;;;;;;;;;9.00;99.90;;;;;;5075885;28;19927;-76
2023/11/05 04:41:44;;;;;;;;;;;9.20;99.90;;;;;;5074597;28;19943;-78
2023/11/05 04:44:12;;;;;;;;;;;9.20;99.90;;;;;;5076618;28;19920;-78
2023/11/05 04:46:57;;;;;;;;;;;9.20;99.90;;;;;;5070653;28;19928;-77
2023/11/05 04:49:26;;;;;;;;;;;9.20;99.90;;;;;;5080934;28;20015;-76
2023/11/05 04:51:53;;;;;;;;;;;9.10;99.90;;;;;;5081493;28;20015;-75
2023/11/05 04:54:20;;;;;;;;;;;8.70;99.90;;;;;;5084722;28;20393;-76
2023/11/05 04:56:48;;;;;;;;;;;8.90;99.90;;;;;;5074720;28;19920;-76
2023/11/05 04:59:15;;;;;;;;;;;9.00;99.90;;;;;;5079373;28;19928;-77
2023/11/05 05:01:42;;;;;;;;;;;9.10;99.90;;;;;;5080850;28;20042;-77
2023/11/05 05:04:10;;;;;;;;;;;9.20;99.90;;;;;;5078953;28;19926;-76
2023/11/05 05:06:37;;;;;;;;;;;9.00;99.90;;;;;;5062218;28;19935;-77
2023/11/05 05:09:04;;;;;;;;;;;9.10;99.90;;;;;;5075496;28;19920;-77
2023/11/05 05:11:32;;;;;;;;;;;9.10;99.90;;;;;;5070426;28;19923;-76
2023/11/05 05:13:59;;;;;;;;;;;9.10;99.90;;;;;;5075495;28;20287;-75
2023/11/05 05:16:28;;;;;;;;;;;9.20;99.90;;;;;;5076868;28;20291;-75
2023/11/05 05:18:56;;;;;;;;;;;9.10;99.90;;;;;;5079547;28;20011;-75
2023/11/05 05:21:23;;;;;;;;;;;9.10;99.90;;;;;;5073984;28;19927;-77
2023/11/05 05:23:50;;;;;;;;;;;9.10;99.90;;;;;;5079194;28;20027;-78
2023/11/05 05:26:17;;;;;;;;;;;9.10;99.90;;;;;;5079089;28;19920;-76
2023/11/05 05:28:47;;;;;;;;;;;9.00;99.90;;;;;;5069707;28;19974;-77
2023/11/05 05:31:15;;;;;;;;;;;9.20;99.90;;;;;;5076517;28;19935;-76
2023/11/05 05:33:42;;;;;;;;;;;9.20;99.90;;;;;;5077931;28;19942;-77
2023/11/05 05:36:11;;;;;;;;;;;9.10;99.90;;;;;;5076011;28;20007;-78
2023/11/05 05:38:38;;;;;;;;;;;9.20;99.90;;;;;;5076087;28;20295;-77
2023/11/05 05:41:05;;;;;;;;;;;8.90;99.90;;;;;;5079038;28;20442;-78
2023/11/05 05:43:32;;;;;;;;;;;8.30;99.90;;;;;;5073753;28;19950;-75
2023/11/05 05:45:59;;;;;;;;;;;8.30;99.90;;;;;;5075836;28;19924;-76
2023/11/05 05:48:26;;;;;;;;;;;8.30;99.90;;;;;;5076460;28;19920;-78
2023/11/05 05:50:54;;;;;;;;;;;8.30;99.90;;;;;;5078381;28;19939;-77
2023/11/05 05:53:21;;;;;;;;;;;8.40;99.90;;;;;;5078648;28;19931;-78
2023/11/05 05:55:49;;;;;;;;;;;8.80;99.90;;;;;;5081171;28;19927;-77
2023/11/05 05:58:16;;;;;;;;;;;9.10;99.90;;;;;;5079935;28;20528;-77
2023/11/05 06:00:46;;;;;;;;;;;9.20;99.90;;;;;;5081257;28;20365;-77
2023/11/05 06:03:13;;;;;;;;;;;9.30;99.90;;;;;;5062514;28;20513;-76
2023/11/05 06:05:40;;;;;;;;;;;9.40;99.90;;;;;;5096497;28;19923;-77
2023/11/05 06:08:07;;;;;;;;;;;9.50;99.90;;;;;;5064554;28;19919;-77
2023/11/05 06:10:35;;;;;;;;;;;9.50;99.90;;;;;;5058793;28;19924;-76
2023/11/05 06:13:02;;;;;;;;;;;9.60;99.90;;;;;;5077143;28;19920;-75
2023/11/05 06:15:29;;;;;;;;;;;9.70;99.90;;;;;;5081631;28;19944;-74
2023/11/05 06:17:56;;;;;;;;;;;9.70;99.90;;;;;;5073078;28;20314;-77
2023/11/05 06:20:24;;;;;;;;;;;9.70;99.90;;;;;;5078422;28;20350;-78
2023/11/05 06:22:55;;;;;;;;;;;9.80;99.90;;;;;;5058437;28;19924;-77
2023/11/05 06:25:22;;;;;;;;;;;9.80;99.90;;;;;;5075732;28;20364;-77
2023/11/05 06:27:50;;;;;;;;;;;9.10;99.90;;;;;;5078462;28;20488;-77
2023/11/05 06:30:17;;;;;;;;;;;9.40;99.90;;;;;;5078319;28;19952;-77
2023/11/05 06:32:44;;;;;;;;;;;9.00;99.90;;;;;;5078433;28;19927;-77
2023/11/05 06:35:11;;;;;;;;;;;9.30;99.90;;;;;;5079706;28;19989;-76
2023/11/05 06:37:38;;;;;;;;;;;9.50;99.90;;;;;;5082094;28;19919;-79
2023/11/05 06:40:06;;;;;;;;;;;9.20;99.90;;;;;;5079357;28;20298;-79
2023/11/05 06:42:33;;;;;;;;;;;9.40;99.90;;;;;;5080268;28;19924;-78
2023/11/05 06:45:00;;;;;;;;;;;9.10;99.90;;;;;;5077404;28;19924;-79
2023/11/05 06:47:29;;;;;;;;;;;9.30;99.90;;;;;;5078764;28;19920;-78
2023/11/05 06:49:56;;;;;;;;;;;9.30;99.90;;;;;;5080242;28;19920;-78
2023/11/05 06:52:24;;;;;;;;;;;9.20;99.90;;;;;;5072919;28;20291;-78
2023/11/05 06:54:52;;;;;;;;;;;9.50;99.90;;;;;;5063317;28;19927;-77
2023/11/05 06:57:19;;;;;;;;;;;9.80;99.90;;;;;;5077384;28;20436;-78
2023/11/05 06:59:46;;;;;;;;;;;9.80;99.90;;;;;;5079386;28;19927;-76
2023/11/05 07:02:14;;;;;;;;;;;10.00;99.90;;;;;;5079617;28;19928;-76
2023/11/05 07:04:41;;;;;;;;;;;9.80;99.90;;;;;;5060260;28;19963;-76
2023/11/05 07:07:08;;;;;;;;;;;10.00;99.90;;;;;;5069929;28;20015;-77
2023/11/05 07:09:36;;;;;;;;;;;10.20;99.90;;;;;;5074078;28;19928;-77
2023/11/05 07:12:04;;;;;;;;;;;10.30;99.90;;;;;;5078151;28;19924;-77
2023/11/05 07:14:31;;;;;;;;;;;10.40;99.90;;;;;;5078087;28;19930;-77
2023/11/05 07:16:58;;;;;;;;;;;10.50;99.90;;;;;;5057534;28;20321;-76
2023/11/05 07:19:26;;;;;;;;;;;10.50;99.90;;;;;;5075492;28;20019;-76
2023/11/05 07:21:53;;;;;;;;;;;10.60;99.90;;;;;;5077265;28;19927;-77
2023/11/05 07:24:20;;;;;;;;;;;10.70;99.90;;;;;;5082376;28;20015;-77
2023/11/05 07:26:47;;;;;;;;;;;10.90;99.90;;;;;;5092361;28;20018;-76
2023/11/05 07:29:16;;;;;;;;;;;11.50;99.90;;;;;;5072187;28;19924;-78
2023/11/05 07:31:44;;;;;;;;;;;11.80;99.90;;;;;;5081325;28;19924;-79
2023/11/05 07:34:14;;;;;;;;;;;12.10;99.90;;;;;;5085771;28;19973;-77
2023/11/05 07:36:44;;;;;;;;;;;12.20;99.90;;;;;;5078576;28;19931;-78
2023/11/05 07:39:11;;;;;;;;;;;12.20;99.90;;;;;;5094413;28;19921;-78
2023/11/05 07:41:38;;;;;;;;;;;12.00;99.90;;;;;;5080734;28;19981;-77
2023/11/05 07:44:06;;;;;;;;;;;11.90;99.90;;;;;;5072563;28;19970;-78
2023/11/05 07:46:35;;;;;;;;;;;11.90;99.90;;;;;;5079484;28;20027;-79
2023/11/05 07:49:04;;;;;;;;;;;12.00;99.90;;;;;;5082869;28;19920;-79
2023/11/05 07:51:31;;;;;;;;;;;12.00;99.90;;;;;;5047875;28;19934;-80
2023/11/05 07:53:59;;;;;;;;;;;12.00;99.90;;;;;;5096610;28;19920;-75
2023/11/05 07:56:26;;;;;;;;;;;12.00;99.90;;;;;;5079694;28;19930;-79
2023/11/05 07:58:54;;;;;;;;;;;12.00;99.90;;;;;;5075801;28;19920;-79
2023/11/05 08:01:21;;;;;;;;;;;11.90;99.90;;;;;;5081651;28;19926;-78
2023/11/05 08:03:50;;;;;;;;;;;12.00;99.90;;;;;;5075775;28;19929;-76
2023/11/05 08:06:17;;;;;;;;;;;12.10;99.90;;;;;;5078052;28;20335;-78
2023/11/05 08:08:45;;;;;;;;;;;12.30;99.90;;;;;;5082952;28;19920;-77
2023/11/05 08:11:13;;;;;;;;;;;12.20;99.90;;;;;;5080051;28;19978;-78
2023/11/05 08:13:40;;;;;;;;;;;12.20;99.90;;;;;;5082313;28;19920;-78
2023/11/05 08:16:07;;;;;;;;;;;12.20;99.90;;;;;;5083978;28;19927;-78
2023/11/05 08:18:34;;;;;;;;;;;12.30;99.90;;;;;;5081274;28;19927;-78
2023/11/05 08:21:02;;;;;;;;;;;12.20;99.90;;;;;;5081690;28;20015;-79
2023/11/05 08:23:30;;;;;;;;;;;12.30;99.90;;;;;;5082977;28;19973;-79
2023/11/05 08:25:59;;;;;;;;;;;12.50;99.90;;;;;;5077117;28;19925;-77
2023/11/05 08:28:26;;;;;;;;;;;12.60;99.90;;;;;;5080203;28;19924;-80
2023/11/05 08:30:54;;;;;;;;;;;12.40;99.90;;;;;;5071658;28;20019;-79
2023/11/05 08:33:21;;;;;;;;;;;12.40;99.90;;;;;;5074212;28;20014;-79
2023/11/05 08:35:51;;;;;;;;;;;12.60;99.90;;;;;;5062576;28;20019;-82
2023/11/05 08:38:18;;;;;;;;;;;12.70;99.90;;;;;;5076485;28;19923;-80
2023/11/05 08:40:46;;;;;;;;;;;12.40;99.90;;;;;;5073174;28;20039;-80
2023/11/05 08:43:13;;;;;;;;;;;12.70;99.90;;;;;;5074131;28;20023;-79
2023/11/05 08:45:41;;;;;;;;;;;12.50;99.90;;;;;;5081553;28;19963;-79
2023/11/05 08:48:19;;;;;;;;;;;12.60;99.90;;;;;;5076950;28;19920;-79
2023/11/05 08:50:51;;;;;;;;;;;12.80;99.90;;;;;;5057863;28;19924;-79
2023/11/05 08:53:21;;;;;;;;;;;13.10;99.90;;;;;;5078010;28;20343;-77
2023/11/05 08:55:48;;;;;;;;;;;12.90;99.90;;;;;;5074937;28;20294;-79
2023/11/05 08:58:19;;;;;;;;;;;12.60;99.90;;;;;;5078414;28;20278;-79
2023/11/05 09:00:46;;;;;;;;;;;12.40;99.90;;;;;;5080998;28;20559;-76
2023/11/05 09:03:13;;;;;;;;;;;12.30;99.90;;;;;;5061824;28;19966;-78
2023/11/05 09:05:40;;;;;;;;;;;12.30;99.90;;;;;;5077400;28;19920;-78
2023/11/05 09:08:11;;;;;;;;;;;12.20;99.90;;;;;;5063090;28;20457;-79
2023/11/05 09:10:38;;;;;;;;;;;12.40;99.90;;;;;;5061207;28;19966;-83
2023/11/05 09:13:06;;;;;;;;;;;12.40;99.90;;;;;;5064436;28;19928;-82
2023/11/05 09:15:33;;;;;;;;;;;12.40;99.90;;;;;;5061454;28;19924;-82
2023/11/05 09:18:05;;;;;;;;;;;12.60;99.90;;;;;;5066486;28;19920;-84
2023/11/05 09:20:34;;;;;;;;;;;12.80;99.90;;;;;;5094577;28;19927;-84
2023/11/05 09:23:02;;;;;;;;;;;13.00;99.90;;;;;;5043171;28;19951;-78
2023/11/05 09:25:29;;;;;;;;;;;12.90;99.90;;;;;;5063275;28;20019;-75
2023/11/05 09:27:57;;;;;;;;;;;12.70;99.90;;;;;;5051779;28;19924;-76
2023/11/05 09:30:26;;;;;;;;;;;12.90;99.90;;;;;;5046536;28;20281;-76
2023/11/05 09:32:54;;;;;;;;;;;13.00;99.90;;;;;;5048522;28;19943;-79
2023/11/05 09:35:21;;;;;;;;;;;12.80;99.90;;;;;;5037672;28;19921;-77
2023/11/05 09:38:06;;;;;;;;;;;12.90;99.90;;;;;;5053433;28;19943;-78
2023/11/05 09:40:35;;;;;;;;;;;13.10;99.90;;;;;;5029528;28;19932;-77
2023/11/05 09:43:04;;;;;;;;;;;13.40;99.90;;;;;;5089478;28;19924;-78
2023/11/05 09:45:33;;;;;;;;;;;13.50;99.90;;;;;;5076735;28;20162;-78
2023/11/05 09:48:02;;;;;;;;;;;13.20;99.90;;;;;;5079342;28;20011;-80
2023/11/05 09:50:30;;;;;;;;;;;13.10;99.90;;;;;;5081895;28;19920;-78
2023/11/05 09:53:04;;;;;;;;;;;13.10;99.90;;;;;;5076434;28;19969;-78
2023/11/05 09:55:32;;;;;;;;;;;13.00;99.90;;;;;;5068978;28;19951;-79
2023/11/05 09:58:03;;;;;;;;;;;12.80;99.90;;;;;;5080776;28;19950;-79
2023/11/05 10:00:32;;;;;;;;;;;13.10;99.90;;;;;;5066214;28;22794;-80
2023/11/05 10:03:09;;;;;;;;;;;13.00;99.90;;;;;;5067140;28;21611;-81
2023/11/05 10:05:47;;;;;;;;;;;13.00;99.90;;;;;;5067937;28;20038;-80
2023/11/05 10:08:14;;;;;;;;;;;13.30;99.90;;;;;;5069601;28;20367;-80
2023/11/05 10:10:44;;;;;;;;;;;13.50;99.90;;;;;;5073001;28;19973;-80
2023/11/05 10:13:13;;;;;;;;;;;13.20;99.90;;;;;;5072308;28;19966;-80
2023/11/05 10:15:42;;;;;;;;;;;13.10;99.90;;;;;;5069173;28;19930;-78
2023/11/05 10:18:13;;;;;;;;;;;13.30;99.90;;;;;;5079799;28;19928;-79
2023/11/05 10:21:08;;;;;;;;;;;13.50;99.90;;;;;;5053823;28;20361;-82
2023/11/05 10:23:51;;;;;;;;;;;13.10;99.90;;;;;;5057466;28;19920;-80
2023/11/05 10:26:34;;;;;;;;;;;12.80;99.90;;;;;;5067668;28;19924;-80
2023/11/05 10:29:01;;;;;;;;;;;12.80;99.90;;;;;;5091187;28;19927;-82
2023/11/05 10:31:29;;;;;;;;;;;13.00;99.90;;;;;;5081438;28;20371;-81
2023/11/05 10:33:58;;;;;;;;;;;13.10;99.90;;;;;;5057023;28;19924;-79
2023/11/05 10:36:29;;;;;;;;;;;13.20;99.90;;;;;;5076792;28;19951;-84
2023/11/05 10:38:58;;;;;;;;;;;13.30;99.90;;;;;;5059057;28;19921;-84
2023/11/05 10:41:31;;;;;;;;;;;13.30;99.90;;;;;;5074084;28;19928;-81
2023/11/05 10:43:59;;;;;;;;;;;13.30;99.90;;;;;;5060690;28;20393;-84
2023/11/05 10:46:26;;;;;;;;;;;13.50;99.90;;;;;;5081046;28;19963;-84
2023/11/05 10:48:54;;;;;;;;;;;13.80;99.90;;;;;;5074705;28;20590;-84
2023/11/05 10:51:25;;;;;;;;;;;13.80;99.90;;;;;;5076147;28;19927;-79
2023/11/05 10:53:52;;;;;;;;;;;14.10;99.90;;;;;;5063349;28;19927;-82
2023/11/05 10:56:33;;;;;;;;;;;13.60;99.90;;;;;;5080805;28;19920;-82
2023/11/05 10:59:02;;;;;;;;;;;13.80;99.90;;;;;;5074945;28;19920;-81
2023/11/05 11:01:30;;;;;;;;;;;14.00;99.90;;;;;;5085519;28;19924;-83
2023/11/05 11:04:16;;;;;;;;;;;14.20;99.90;;;;;;5081859;28;19924;-80
2023/11/05 11:06:46;;;;;;;;;;;13.60;99.90;;;;;;5082723;28;19950;-75
2023/11/05 11:09:27;;;;;;;;;;;13.80;99.90;;;;;;5084511;28;19920;-86
2023/11/05 11:12:19;;;;;;;;;;;14.00;99.90;;;;;;5082581;28;20440;-79
2023/11/05 11:14:55;;;;;;;;;;;13.60;99.90;;;;;;5091078;28;19956;-81
2023/11/05 11:17:31;;;;;;;;;;;13.50;99.90;;;;;;5068564;28;19920;-80
2023/11/05 11:19:59;;;;;;;;;;;13.70;99.90;;;;;;5066887;28;19920;-79
2023/11/05 11:22:39;;;;;;;;;;;13.90;99.90;;;;;;5082600;28;19920;-79
2023/11/05 11:25:14;;;;;;;;;;;13.50;99.90;;;;;;5058317;28;19924;-80
2023/11/05 11:27:48;;;;;;;;;;;13.40;99.90;;;;;;5078780;28;20030;-81
2023/11/05 11:30:17;;;;;;;;;;;13.60;99.90;;;;;;5078973;28;19993;-79
2023/11/05 11:32:45;;;;;;;;;;;13.90;99.90;;;;;;5081031;28;20102;-82
2023/11/05 11:35:14;;;;;;;;;;;14.00;99.90;;;;;;5071769;28;19921;-80
2023/11/05 11:37:41;;;;;;;;;;;14.20;99.90;;;;;;5080270;28;20342;-79
2023/11/05 11:40:12;;;;;;;;;;;14.20;99.90;;;;;;5092312;28;20370;-79
2023/11/05 11:42:40;;;;;;;;;;;13.70;99.90;;;;;;5075554;28;19986;-79
2023/11/05 11:45:07;;;;;;;;;;;13.50;99.90;;;;;;5083965;28;20366;-82
2023/11/05 11:47:39;;;;;;;;;;;13.50;99.90;;;;;;5081835;28;19921;-83
2023/11/05 11:50:07;;;;;;;;;;;13.70;99.90;;;;;;5091170;28;20260;-80
2023/11/05 11:52:45;;;;;;;;;;;13.90;99.90;;;;;;5068944;28;20290;-82
2023/11/05 11:55:17;;;;;;;;;;;13.70;99.90;;;;;;5076624;28;20271;-82
2023/11/05 11:57:48;;;;;;;;;;;13.70;99.90;;;;;;5080768;28;20287;-80
2023/11/05 12:00:16;;;;;;;;;;;13.70;99.90;;;;;;5073900;28;19920;-81
2023/11/05 12:02:47;;;;;;;;;;;13.90;99.90;;;;;;5056901;28;20017;-79
2023/11/05 12:05:15;;;;;;;;;;;14.10;99.90;;;;;;5078240;28;20388;-78
2023/11/05 12:07:46;;;;;;;;;;;14.30;99.90;;;;;;5080346;28;19920;-83
2023/11/05 12:10:18;;;;;;;;;;;14.30;99.90;;;;;;5076378;28;19920;-82
2023/11/05 12:12:46;;;;;;;;;;;14.30;99.90;;;;;;5076858;28;19924;-84
2023/11/05 12:15:14;;;;;;;;;;;14.30;99.90;;;;;;5064534;28;19920;-82
2023/11/05 12:17:43;;;;;;;;;;;14.20;99.90;;;;;;5075824;28;19920;-80
2023/11/05 12:20:11;;;;;;;;;;;14.30;99.90;;;;;;5076876;28;20019;-83
2023/11/05 12:22:40;;;;;;;;;;;14.40;99.90;;;;;;5073431;28;19924;-79
2023/11/05 12:25:12;;;;;;;;;;;14.60;99.90;;;;;;5057768;28;19920;-82
2023/11/05 12:27:48;;;;;;;;;;;14.60;99.90;;;;;;5075088;28;20021;-82
2023/11/05 12:30:21;;;;;;;;;;;14.80;99.90;;;;;;5077540;28;20285;-83
2023/11/05 12:32:51;;;;;;;;;;;15.10;99.90;;;;;;5073404;28;20302;-85
2023/11/05 12:35:35;;;;;;;;;;;15.10;99.90;;;;;;5078777;28;19909;-83
2023/11/05 12:38:04;;;;;;;;;;;15.30;99.90;;;;;;5071735;28;19924;-83
2023/11/05 12:40:31;;;;;;;;;;;15.40;99.90;;;;;;5074040;28;20016;-85
2023/11/05 12:42:59;;;;;;;;;;;16.60;99.90;;;;;;5079034;28;19920;-85
2023/11/05 12:45:26;;;;;;;;;;;20.50;99.90;;;;;;5071779;28;19936;-78
2023/11/05 12:47:55;;;;;;;;;;;21.20;99.90;;;;;;5073481;28;19920;-88
2023/11/05 12:50:23;;;;;;;;;;;24.70;95.20;;;;;;5074522;28;19920;-87
2023/11/05 12:52:50;;;;;;;;;;;25.30;90.00;;;;;;5080304;28;19926;-83
2023/11/05 12:55:17;;;;;;;;;;;23.60;87.90;;;;;;5063738;28;19928;-83
2023/11/05 12:57:48;;;;;;;;;;;25.50;87.00;;;;;;5078145;28;19927;-87
2023/11/05 13:00:32;;;;;;;;;;;24.50;83.90;;;;;;5073326;28;19924;-84
2023/11/05 13:03:00;;;;;;;;;;;26.40;81.00;;;;;;5074691;28;19924;-80
2023/11/05 13:05:28;;;;;;;;;;;27.40;77.00;;;;;;5056252;28;19920;-83
2023/11/05 13:07:56;;;;;;;;;;;28.10;72.80;;;;;;5078255;28;20031;-88
2023/11/05 13:10:23;;;;;;;;;;;28.20;71.20;;;;;;5075321;28;19966;-86
2023/11/05 13:12:50;;;;;;;;;;;28.50;70.80;;;;;;5075986;28;20007;-82
2023/11/05 13:15:19;;;;;;;;;;;29.50;67.30;;;;;;5073631;28;19920;-81
2023/11/05 13:17:47;;;;;;;;;;;28.70;69.50;;;;;;5070353;28;20034;-83
2023/11/05 13:20:19;;;;;;;;;;;25.80;70.70;;;;;;5079676;28;19927;-83
2023/11/05 13:22:46;;;;;;;;;;;25.50;72.40;;;;;;5077571;28;20339;-86
2023/11/05 13:25:14;;;;;;;;;;;25.20;73.70;;;;;;5080310;28;19963;-85
2023/11/05 13:27:41;;;;;;;;;;;23.30;77.30;;;;;;5075202;28;20264;-86
2023/11/05 13:30:09;;;;;;;;;;;27.20;71.20;;;;;;5073376;28;19964;-84
2023/11/05 13:32:36;;;;;;;;;;;29.60;65.50;;;;;;5059492;28;19933;-86
2023/11/05 13:35:04;;;;;;;;;;;31.10;62.10;;;;;;5074660;28;19986;-87
2023/11/05 13:37:32;;;;;;;;;;;29.70;61.70;;;;;;5078302;28;19928;-85
2023/11/05 13:40:00;;;;;;;;;;;26.10;68.20;;;;;;5078824;28;20298;-79
2023/11/05 13:42:28;;;;;;;;;;;27.50;66.50;;;;;;5074513;28;19920;-85
2023/11/05 13:44:55;;;;;;;;;;;29.80;63.70;;;;;;5073029;28;19930;-82
2023/11/05 13:47:22;;;;;;;;;;;28.60;65.50;;;;;;5079558;28;19950;-81
2023/11/05 13:49:49;;;;;;;;;;;25.90;67.70;;;;;;5084241;28;20026;-79
2023/11/05 13:52:16;;;;;;;;;;;26.10;69.00;;;;;;5075140;28;19927;-81
2023/11/05 13:54:44;;;;;;;;;;;27.00;67.60;;;;;;5078195;28;20294;-84
2023/11/05 13:57:12;;;;;;;;;;;24.80;69.80;;;;;;5080251;28;19990;-78
2023/11/05 13:59:44;;;;;;;;;;;24.00;73.70;;;;;;5072103;28;20291;-82
2023/11/05 14:02:11;;;;;;;;;;;23.70;75.60;;;;;;5074581;28;19927;-82
2023/11/05 14:04:38;;;;;;;;;;;23.50;76.60;;;;;;5058729;28;20011;-81
2023/11/05 14:07:06;;;;;;;;;;;23.30;74.10;;;;;;5076452;28;19949;-78
2023/11/05 14:09:33;;;;;;;;;;;22.50;79.40;;;;;;5078158;28;19926;-84
2023/11/05 14:14:28;;;;;;;;;;;26.00;73.60;;;;;;5089212;28;19916;-81
2023/11/05 14:16:55;;;;;;;;;;;27.80;66.40;;;;;;5089672;28;20272;-82
2023/11/05 14:19:22;;;;;;;;;;;28.00;65.10;;;;;;5072901;28;19924;-77
2023/11/05 14:21:50;;;;;;;;;;;27.70;65.80;;;;;;5073349;28;19925;-75
2023/11/05 14:24:17;;;;;;;;;;;26.90;66.70;;;;;;5071827;28;19948;-78
2023/11/05 14:26:44;;;;;;;;;;;25.30;69.90;;;;;;5072416;28;19947;-81
2023/11/05 14:29:11;;;;;;;;;;;24.90;71.90;;;;;;5068893;28;19925;-75
2023/11/05 14:31:39;;;;;;;;;;;23.40;74.60;;;;;;5068073;28;19929;-78
2023/11/05 14:34:06;;;;;;;;;;;25.30;71.60;;;;;;5059684;28;19929;-78